Time;durP1;ratioP1;P1;durP2;ratioP2;P2;SDS_P1;SDS_P2;PMS_P1;PMS_P2;Temp;Humidity;BMP_temperature;BMP_pressure;BME280_temperature;BME280_humidity;BME280_pressure;Samples;Min_cycle;Max_cycle;Signal;HPM_P1;HPM_P2
2023/04/07 00:01:53;;;;;;;16.42;10.85;;;;;;;;;;5137239;27;20065;-68
2023/04/07 00:04:39;;;;;;;17.15;11.10;;;;;;;;;;5136677;27;20027;-68
2023/04/07 00:07:25;;;;;;;19.23;11.00;;;;;;;;;;5120884;27;20447;-69
2023/04/07 00:10:10;;;;;;;18.30;11.82;;;;;;;;;;5135626;27;20353;-68
2023/04/07 00:12:57;;;;;;;17.95;11.77;;;;;;;;;;5136558;27;20027;-69
2023/04/07 00:15:42;;;;;;;21.08;11.48;;;;;;;;;;5135748;27;20019;-68
2023/04/07 00:18:28;;;;;;;16.08;11.27;;;;;;;;;;5135448;27;20030;-68
2023/04/07 00:21:13;;;;;;;20.02;12.07;;;;;;;;;;5136760;27;20031;-67
2023/04/07 00:23:59;;;;;;;18.35;11.68;;;;;;;;;;5136195;27;20137;-68
2023/04/07 00:26:45;;;;;;;23.17;12.02;;;;;;;;;;5120141;27;20110;-68
2023/04/07 00:29:30;;;;;;;18.23;12.10;;;;;;;;;;5136066;27;20030;-69
2023/04/07 00:32:16;;;;;;;18.15;11.52;;;;;;;;;;5136339;27;20026;-68
2023/04/07 00:35:01;;;;;;;18.92;12.40;;;;;;;;;;5136981;27;20019;-68
2023/04/07 00:37:47;;;;;;;20.00;12.27;;;;;;;;;;5136159;27;20019;-68
2023/04/07 00:40:33;;;;;;;18.67;12.25;;;;;;;;;;5135295;27;20020;-69
2023/04/07 00:43:18;;;;;;;18.63;12.27;;;;;;;;;;5135034;27;20031;-69
2023/04/07 00:46:04;;;;;;;19.67;12.05;;;;;;;;;;5135181;27;20023;-67
2023/04/07 00:48:50;;;;;;;18.42;12.18;;;;;;;;;;5134257;27;20023;-68
2023/04/07 00:51:35;;;;;;;22.05;13.10;;;;;;;;;;5135018;27;20019;-69
2023/04/07 00:54:24;;;;;;;19.02;12.52;;;;;;;;;;5135617;27;20019;-68
2023/04/07 00:57:10;;;;;;;19.92;12.55;;;;;;;;;;5135332;27;20450;-69
2023/04/07 00:59:56;;;;;;;20.67;12.50;;;;;;;;;;5136008;27;20019;-69
2023/04/07 01:02:50;;;;;;;20.38;12.85;;;;;;;;;;5136152;27;20396;-69
2023/04/07 01:05:41;;;;;;;18.85;12.02;;;;;;;;;;5135027;27;20466;-67
2023/04/07 01:08:38;;;;;;;21.08;12.45;;;;;;;;;;5134746;27;20367;-68
2023/04/07 01:11:24;;;;;;;19.88;11.93;;;;;;;;;;5119889;27;20027;-69
2023/04/07 01:14:11;;;;;;;16.27;11.57;;;;;;;;;;5119887;27;20103;-69
2023/04/07 01:16:56;;;;;;;18.13;12.60;;;;;;;;;;5118976;27;20075;-68
2023/04/07 01:19:46;;;;;;;20.55;13.10;;;;;;;;;;5136036;27;20055;-68
2023/04/07 01:22:33;;;;;;;20.40;13.20;;;;;;;;;;5133740;27;20111;-67
2023/04/07 01:25:25;;;;;;;20.88;13.50;;;;;;;;;;5133506;27;20038;-68
2023/04/07 01:28:30;;;;;;;21.35;12.70;;;;;;;;;;5135137;27;20034;-68
2023/04/07 01:31:16;;;;;;;19.15;12.98;;;;;;;;;;5134023;27;20343;-69
2023/04/07 01:34:02;;;;;;;20.88;14.00;;;;;;;;;;5134657;27;20076;-69
2023/04/07 01:36:48;;;;;;;19.00;13.07;;;;;;;;;;5120085;27;20023;-68
2023/04/07 01:39:34;;;;;;;18.10;12.23;;;;;;;;;;5134554;27;20047;-68
2023/04/07 01:42:20;;;;;;;18.75;13.10;;;;;;;;;;5135181;27;20050;-68
2023/04/07 01:45:07;;;;;;;24.40;14.23;;;;;;;;;;5134418;28;20011;-70
2023/04/07 01:47:53;;;;;;;21.05;13.65;;;;;;;;;;5134198;28;20023;-68
2023/04/07 01:50:39;;;;;;;19.85;13.15;;;;;;;;;;5134388;28;20106;-68
2023/04/07 01:53:24;;;;;;;19.48;13.30;;;;;;;;;;5135033;28;20034;-67
2023/04/07 01:56:10;;;;;;;19.90;13.43;;;;;;;;;;5133693;28;20335;-69
2023/04/07 01:58:56;;;;;;;23.38;14.18;;;;;;;;;;5118918;28;20015;-67
2023/04/07 02:01:41;;;;;;;23.83;13.90;;;;;;;;;;5134070;28;20034;-68
2023/04/07 02:04:31;;;;;;;21.35;13.90;;;;;;;;;;5119403;28;20062;-69
2023/04/07 02:07:21;;;;;;;19.80;13.55;;;;;;;;;;5118704;28;20477;-68
2023/04/07 02:10:09;;;;;;;21.42;12.90;;;;;;;;;;5135247;28;20027;-68
2023/04/07 02:12:55;;;;;;;21.88;13.55;;;;;;;;;;5120840;28;20047;-67
2023/04/07 02:15:44;;;;;;;22.02;13.93;;;;;;;;;;5134432;28;20022;-67
2023/04/07 02:18:30;;;;;;;21.10;13.57;;;;;;;;;;5118911;28;20388;-68
2023/04/07 02:21:17;;;;;;;19.88;13.40;;;;;;;;;;5135052;28;20130;-68
2023/04/07 02:24:06;;;;;;;20.30;13.65;;;;;;;;;;5134124;28;20019;-69
2023/04/07 02:26:51;;;;;;;21.65;13.50;;;;;;;;;;5120653;28;20503;-68
2023/04/07 02:29:37;;;;;;;22.15;13.95;;;;;;;;;;5135151;28;20483;-68
2023/04/07 02:32:22;;;;;;;22.90;14.68;;;;;;;;;;5134763;28;20020;-68
2023/04/07 02:35:09;;;;;;;21.23;13.68;;;;;;;;;;5135435;27;20327;-68
2023/04/07 02:37:55;;;;;;;22.67;13.68;;;;;;;;;;5139482;27;20027;-68
2023/04/07 02:40:40;;;;;;;22.05;14.43;;;;;;;;;;5138948;27;20019;-68
2023/04/07 02:43:26;;;;;;;21.42;14.35;;;;;;;;;;5136944;27;20031;-68
2023/04/07 02:46:12;;;;;;;20.42;12.95;;;;;;;;;;5136705;27;20053;-70
2023/04/07 02:48:57;;;;;;;21.08;13.90;;;;;;;;;;5122695;27;20023;-69
2023/04/07 02:51:45;;;;;;;24.13;14.85;;;;;;;;;;5138004;27;20045;-68
2023/04/07 02:54:31;;;;;;;28.10;14.93;;;;;;;;;;5138217;27;20041;-69
2023/04/07 02:57:17;;;;;;;21.10;14.25;;;;;;;;;;5137032;27;20420;-67
2023/04/07 03:00:02;;;;;;;21.23;14.23;;;;;;;;;;5137678;27;20019;-67
2023/04/07 03:02:48;;;;;;;22.10;14.27;;;;;;;;;;5138429;27;20034;-68
2023/04/07 03:05:34;;;;;;;22.80;14.43;;;;;;;;;;5138490;27;20098;-68
2023/04/07 03:08:19;;;;;;;20.75;13.45;;;;;;;;;;5136978;27;20423;-68
2023/04/07 03:11:05;;;;;;;21.27;14.48;;;;;;;;;;5122819;27;20500;-68
2023/04/07 03:13:51;;;;;;;22.58;14.50;;;;;;;;;;5135940;27;20336;-69
2023/04/07 03:16:36;;;;;;;23.60;14.43;;;;;;;;;;5138171;27;20019;-69
2023/04/07 03:19:22;;;;;;;21.73;13.80;;;;;;;;;;5137644;27;20034;-70
2023/04/07 03:22:07;;;;;;;24.05;14.77;;;;;;;;;;5139615;27;20066;-68
2023/04/07 03:24:53;;;;;;;23.08;14.98;;;;;;;;;;5139522;27;20359;-69
2023/04/07 03:27:39;;;;;;;21.63;14.05;;;;;;;;;;5139442;27;20027;-71
2023/04/07 03:30:24;;;;;;;22.85;14.65;;;;;;;;;;5137112;27;20362;-71
2023/04/07 03:33:10;;;;;;;23.63;15.23;;;;;;;;;;5135751;27;20106;-71
2023/04/07 03:35:56;;;;;;;23.73;14.73;;;;;;;;;;5136820;27;20011;-70
2023/04/07 03:38:41;;;;;;;24.15;14.55;;;;;;;;;;5121420;27;20027;-72
2023/04/07 03:41:27;;;;;;;20.83;14.60;;;;;;;;;;5137843;27;20027;-71
2023/04/07 03:44:12;;;;;;;23.50;15.20;;;;;;;;;;5136029;27;20034;-71
2023/04/07 03:46:59;;;;;;;20.73;13.93;;;;;;;;;;5136240;27;20029;-69
2023/04/07 03:49:45;;;;;;;20.95;13.77;;;;;;;;;;5136613;27;20026;-69
2023/04/07 03:52:30;;;;;;;23.20;15.02;;;;;;;;;;5136574;27;20023;-70
2023/04/07 03:55:16;;;;;;;20.88;14.05;;;;;;;;;;5121021;27;20072;-71
2023/04/07 03:58:02;;;;;;;24.70;14.50;;;;;;;;;;5135959;27;20102;-70
2023/04/07 04:00:47;;;;;;;21.83;14.60;;;;;;;;;;5135851;27;20448;-70
2023/04/07 04:03:33;;;;;;;22.80;13.98;;;;;;;;;;5136424;27;20052;-72
2023/04/07 04:06:19;;;;;;;20.23;14.02;;;;;;;;;;5136829;27;20015;-71
2023/04/07 04:09:04;;;;;;;22.58;13.48;;;;;;;;;;5137204;27;20046;-71
2023/04/07 04:11:50;;;;;;;24.23;14.27;;;;;;;;;;5135206;27;20027;-70
2023/04/07 04:14:36;;;;;;;21.10;13.68;;;;;;;;;;5121510;27;20038;-70
2023/04/07 04:17:21;;;;;;;21.23;14.43;;;;;;;;;;5136730;27;20031;-69
2023/04/07 04:20:07;;;;;;;22.90;14.02;;;;;;;;;;5136871;27;20094;-70
2023/04/07 04:22:53;;;;;;;20.77;14.65;;;;;;;;;;5136148;27;20019;-69
2023/04/07 04:25:39;;;;;;;22.52;14.55;;;;;;;;;;5136520;27;20034;-70
2023/04/07 04:28:25;;;;;;;21.85;13.55;;;;;;;;;;5135307;27;20030;-70
2023/04/07 04:31:11;;;;;;;20.40;13.85;;;;;;;;;;5137864;27;20051;-71
2023/04/07 04:33:56;;;;;;;26.90;14.27;;;;;;;;;;5136541;27;20018;-70
2023/04/07 04:36:42;;;;;;;25.45;14.23;;;;;;;;;;5136763;27;20071;-70
2023/04/07 04:39:28;;;;;;;23.17;13.68;;;;;;;;;;5120403;27;20038;-71
2023/04/07 04:42:13;;;;;;;24.00;14.35;;;;;;;;;;5136055;27;20160;-70
2023/04/07 04:44:59;;;;;;;23.98;14.60;;;;;;;;;;5135807;27;20019;-70
2023/04/07 04:47:45;;;;;;;27.65;14.52;;;;;;;;;;5135636;27;20023;-70
2023/04/07 04:50:30;;;;;;;23.52;13.68;;;;;;;;;;5135906;27;20027;-70
2023/04/07 04:53:16;;;;;;;25.02;14.70;;;;;;;;;;5136169;27;20015;-70
2023/04/07 04:56:02;;;;;;;21.05;14.10;;;;;;;;;;5135153;27;20019;-71
2023/04/07 04:58:47;;;;;;;21.27;13.88;;;;;;;;;;5136129;27;20008;-70
2023/04/07 05:01:33;;;;;;;23.75;14.20;;;;;;;;;;5135837;27;20042;-69
2023/04/07 05:04:18;;;;;;;21.50;13.70;;;;;;;;;;5119724;27;20027;-69
2023/04/07 05:07:04;;;;;;;25.83;14.88;;;;;;;;;;5135775;27;20126;-70
2023/04/07 05:09:50;;;;;;;22.25;13.57;;;;;;;;;;5134106;27;20447;-70
2023/04/07 05:12:35;;;;;;;21.95;14.27;;;;;;;;;;5121121;27;20044;-70
2023/04/07 05:15:21;;;;;;;25.45;13.98;;;;;;;;;;5153383;27;20015;-70
2023/04/07 05:18:06;;;;;;;24.25;14.10;;;;;;;;;;5139315;27;20011;-70
2023/04/07 05:20:52;;;;;;;20.58;13.30;;;;;;;;;;5137307;27;20027;-69
2023/04/07 05:23:37;;;;;;;22.67;14.20;;;;;;;;;;5120582;27;20023;-70
2023/04/07 05:26:23;;;;;;;19.77;13.48;;;;;;;;;;5135573;27;20118;-70
2023/04/07 05:29:08;;;;;;;30.65;13.15;;;;;;;;;;5135721;27;20462;-70
2023/04/07 05:31:54;;;;;;;20.65;13.32;;;;;;;;;;5105358;27;20019;-70
2023/04/07 05:34:40;;;;;;;19.38;12.85;;;;;;;;;;5134780;27;20042;-70
2023/04/07 05:37:25;;;;;;;19.38;13.52;;;;;;;;;;5134273;27;20473;-70
2023/04/07 05:40:11;;;;;;;22.52;13.63;;;;;;;;;;5119808;27;20030;-70
2023/04/07 05:42:57;;;;;;;24.42;12.98;;;;;;;;;;5134912;27;20508;-70
2023/04/07 05:45:42;;;;;;;22.17;14.18;;;;;;;;;;5137688;27;20050;-69
2023/04/07 05:48:28;;;;;;;21.08;14.05;;;;;;;;;;5141872;28;20361;-69
2023/04/07 05:51:14;;;;;;;22.52;12.95;;;;;;;;;;5136388;28;20024;-70
2023/04/07 05:54:00;;;;;;;20.85;13.02;;;;;;;;;;5134985;28;20029;-71
2023/04/07 05:56:46;;;;;;;25.92;13.30;;;;;;;;;;5119320;28;20472;-71
2023/04/07 05:59:32;;;;;;;21.33;13.07;;;;;;;;;;5135056;28;20049;-70
2023/04/07 06:02:17;;;;;;;20.35;13.32;;;;;;;;;;5134461;28;20055;-70
2023/04/07 06:05:03;;;;;;;22.30;13.57;;;;;;;;;;5134571;28;20084;-70
2023/04/07 06:07:48;;;;;;;21.00;12.40;;;;;;;;;;5134447;28;20039;-70
2023/04/07 06:10:34;;;;;;;18.65;12.95;;;;;;;;;;5136009;27;20411;-70
2023/04/07 06:13:20;;;;;;;21.08;12.82;;;;;;;;;;5137712;27;20107;-70
2023/04/07 06:16:05;;;;;;;20.30;12.43;;;;;;;;;;5138072;27;20023;-69
2023/04/07 06:18:51;;;;;;;21.75;12.52;;;;;;;;;;5139369;27;20088;-72
2023/04/07 06:21:37;;;;;;;20.25;13.18;;;;;;;;;;5124747;27;20047;-69
2023/04/07 06:24:24;;;;;;;23.10;13.82;;;;;;;;;;5138119;27;20443;-69
2023/04/07 06:27:09;;;;;;;21.38;13.15;;;;;;;;;;5137641;27;20035;-70
2023/04/07 06:29:55;;;;;;;22.77;13.48;;;;;;;;;;5137344;27;20102;-69
2023/04/07 06:32:41;;;;;;;23.02;13.38;;;;;;;;;;5138799;27;20083;-70
2023/04/07 06:35:26;;;;;;;20.98;14.00;;;;;;;;;;5138330;27;20114;-69
2023/04/07 06:38:12;;;;;;;23.52;14.63;;;;;;;;;;5122667;27;20015;-71
2023/04/07 06:40:58;;;;;;;24.77;13.43;;;;;;;;;;5138361;27;20042;-70
2023/04/07 06:43:45;;;;;;;22.58;15.15;;;;;;;;;;5138711;27;20023;-70
2023/04/07 06:46:31;;;;;;;22.73;15.20;;;;;;;;;;5138498;27;20031;-68
2023/04/07 06:49:16;;;;;;;25.15;14.43;;;;;;;;;;5123245;27;20447;-70
2023/04/07 06:52:02;;;;;;;23.13;14.73;;;;;;;;;;5122457;27;20019;-72
2023/04/07 06:54:48;;;;;;;21.33;13.82;;;;;;;;;;5137962;27;20030;-70
2023/04/07 06:57:33;;;;;;;22.60;13.98;;;;;;;;;;5123178;27;20035;-70
2023/04/07 07:00:19;;;;;;;25.25;15.13;;;;;;;;;;5137777;27;20015;-69
2023/04/07 07:03:05;;;;;;;22.00;14.20;;;;;;;;;;5137305;27;20023;-71
2023/04/07 07:05:51;;;;;;;22.20;14.05;;;;;;;;;;5137676;27;20011;-70
2023/04/07 07:08:37;;;;;;;22.58;14.50;;;;;;;;;;5136179;27;20043;-71
2023/04/07 07:11:22;;;;;;;27.45;14.75;;;;;;;;;;5137451;27;20030;-69
2023/04/07 07:14:08;;;;;;;24.20;15.60;;;;;;;;;;5122224;27;20072;-69
2023/04/07 07:16:54;;;;;;;25.27;15.60;;;;;;;;;;5123201;27;20083;-71
2023/04/07 07:19:39;;;;;;;25.13;15.40;;;;;;;;;;5137062;27;20477;-69
2023/04/07 07:22:25;;;;;;;24.63;15.40;;;;;;;;;;5121194;27;20465;-70
2023/04/07 07:25:11;;;;;;;28.08;15.52;;;;;;;;;;5136040;27;20519;-71
2023/04/07 07:27:56;;;;;;;22.23;14.93;;;;;;;;;;5136026;27;20028;-70
2023/04/07 07:30:42;;;;;;;21.75;14.85;;;;;;;;;;5137600;27;20026;-70
2023/04/07 07:33:28;;;;;;;22.27;15.00;;;;;;;;;;5137460;27;20015;-71
2023/04/07 07:36:13;;;;;;;26.48;14.73;;;;;;;;;;5137684;27;20359;-70
2023/04/07 07:38:59;;;;;;;24.00;14.80;;;;;;;;;;5135775;27;20019;-72
2023/04/07 07:41:45;;;;;;;19.65;13.95;;;;;;;;;;5137146;27;20019;-70
2023/04/07 07:44:31;;;;;;;25.75;15.00;;;;;;;;;;5121538;27;20034;-70
2023/04/07 07:47:16;;;;;;;19.75;14.38;;;;;;;;;;5136818;27;20031;-70
2023/04/07 07:50:03;;;;;;;21.15;14.05;;;;;;;;;;5136501;27;20054;-71
2023/04/07 07:52:48;;;;;;;29.52;15.15;;;;;;;;;;5136878;27;20033;-70
2023/04/07 07:55:34;;;;;;;21.77;14.80;;;;;;;;;;5136887;27;20007;-69
2023/04/07 07:58:19;;;;;;;24.65;15.25;;;;;;;;;;5136223;27;20023;-69
2023/04/07 08:01:05;;;;;;;24.23;14.50;;;;;;;;;;5137700;27;20050;-70
2023/04/07 08:03:50;;;;;;;21.48;14.27;;;;;;;;;;5121018;27;20045;-70
2023/04/07 08:06:36;;;;;;;21.25;13.88;;;;;;;;;;5136611;27;20354;-70
2023/04/07 08:09:22;;;;;;;23.63;13.77;;;;;;;;;;5135430;27;20415;-70
2023/04/07 08:12:07;;;;;;;24.23;13.60;;;;;;;;;;5136908;27;20446;-70
2023/04/07 08:14:53;;;;;;;19.90;13.27;;;;;;;;;;5136528;27;20034;-73
2023/04/07 08:17:39;;;;;;;22.95;14.40;;;;;;;;;;5136167;27;20071;-72
2023/04/07 08:20:25;;;;;;;21.90;13.15;;;;;;;;;;5135190;27;20034;-71
2023/04/07 08:23:11;;;;;;;20.27;13.50;;;;;;;;;;5121481;27;20110;-72
2023/04/07 08:25:56;;;;;;;18.63;13.35;;;;;;;;;;5136181;27;20118;-71
2023/04/07 08:28:42;;;;;;;20.27;14.30;;;;;;;;;;5136548;27;20039;-70
2023/04/07 08:31:28;;;;;;;20.63;13.93;;;;;;;;;;5136234;27;20034;-71
2023/04/07 08:34:15;;;;;;;21.33;14.18;;;;;;;;;;5136992;27;20469;-70
2023/04/07 08:37:01;;;;;;;21.48;13.98;;;;;;;;;;5134449;27;20454;-70
2023/04/07 08:39:46;;;;;;;19.75;13.10;;;;;;;;;;5135592;27;20015;-71
2023/04/07 08:42:33;;;;;;;20.38;12.68;;;;;;;;;;5136316;27;20027;-71
2023/04/07 08:45:18;;;;;;;19.58;13.43;;;;;;;;;;5136385;27;20461;-70
2023/04/07 08:48:09;;;;;;;20.02;12.80;;;;;;;;;;5120108;27;20053;-70
2023/04/07 08:50:56;;;;;;;20.20;13.02;;;;;;;;;;5105865;27;20035;-70
2023/04/07 08:53:49;;;;;;;20.20;13.25;;;;;;;;;;5136256;27;20011;-70
2023/04/07 08:56:36;;;;;;;20.45;12.43;;;;;;;;;;5135638;27;20026;-70
2023/04/07 08:59:25;;;;;;;25.50;12.70;;;;;;;;;;5135353;27;20056;-71
2023/04/07 09:02:11;;;;;;;18.73;13.13;;;;;;;;;;5120770;27;20466;-70
2023/04/07 09:04:56;;;;;;;18.08;12.10;;;;;;;;;;5133887;27;20043;-70
2023/04/07 09:07:42;;;;;;;17.20;11.35;;;;;;;;;;5136559;27;20058;-70
2023/04/07 09:10:28;;;;;;;17.63;11.35;;;;;;;;;;5135348;27;20106;-71
2023/04/07 09:13:15;;;;;;;19.83;11.95;;;;;;;;;;5135305;27;20124;-70
2023/04/07 09:16:01;;;;;;;17.73;11.88;;;;;;;;;;5105585;27;20431;-69
2023/04/07 09:18:46;;;;;;;17.73;10.93;;;;;;;;;;5120137;27;20023;-70
2023/04/07 09:21:46;;;;;;;15.48;11.25;;;;;;;;;;5135926;27;20354;-69
2023/04/07 09:24:31;;;;;;;14.57;10.55;;;;;;;;;;5137675;27;20111;-70
2023/04/07 09:27:17;;;;;;;18.35;11.20;;;;;;;;;;5120166;27;20030;-70
2023/04/07 09:30:15;;;;;;;19.50;11.75;;;;;;;;;;5119601;27;20027;-70
2023/04/07 09:33:01;;;;;;;18.02;10.88;;;;;;;;;;5134600;27;20058;-70
2023/04/07 09:35:52;;;;;;;17.88;11.90;;;;;;;;;;5120121;27;20019;-70
2023/04/07 09:38:38;;;;;;;16.33;11.68;;;;;;;;;;5135011;27;20434;-71
2023/04/07 09:41:26;;;;;;;15.52;11.80;;;;;;;;;;5135392;27;20034;-71
2023/04/07 09:44:12;;;;;;;15.15;11.43;;;;;;;;;;5135084;27;20058;-70
2023/04/07 09:46:58;;;;;;;17.73;11.32;;;;;;;;;;5134022;27;20425;-70
2023/04/07 09:49:53;;;;;;;18.83;11.38;;;;;;;;;;5134944;28;20102;-70
2023/04/07 09:52:48;;;;;;;18.70;11.13;;;;;;;;;;5134627;28;20057;-70
2023/04/07 09:55:35;;;;;;;19.17;11.00;;;;;;;;;;5134273;28;20507;-70
2023/04/07 09:58:20;;;;;;;14.57;10.38;;;;;;;;;;5134095;28;20027;-70
2023/04/07 10:01:07;;;;;;;16.65;11.05;;;;;;;;;;5133428;28;20035;-71
2023/04/07 10:03:55;;;;;;;14.82;10.95;;;;;;;;;;5119270;28;20114;-69
2023/04/07 10:06:41;;;;;;;18.92;11.63;;;;;;;;;;5134393;28;20053;-70
2023/04/07 10:09:27;;;;;;;23.73;11.73;;;;;;;;;;5134543;28;20027;-70
2023/04/07 10:12:14;;;;;;;14.63;10.82;;;;;;;;;;5134168;28;20039;-71
2023/04/07 10:15:00;;;;;;;13.45;10.43;;;;;;;;;;5133413;28;20023;-70
2023/04/07 10:17:50;;;;;;;16.38;10.57;;;;;;;;;;5119576;28;20027;-71
2023/04/07 10:20:38;;;;;;;14.73;10.70;;;;;;;;;;5133510;28;20031;-70
2023/04/07 10:23:31;;;;;;;14.57;10.90;;;;;;;;;;5119745;28;20111;-69
2023/04/07 10:26:18;;;;;;;16.00;10.82;;;;;;;;;;5135369;28;20027;-70
2023/04/07 10:29:07;;;;;;;19.33;11.35;;;;;;;;;;5135233;28;20019;-70
2023/04/07 10:31:52;;;;;;;15.30;11.00;;;;;;;;;;5135035;28;20087;-70
2023/04/07 10:34:52;;;;;;;15.43;10.60;;;;;;;;;;5134579;28;20052;-70
2023/04/07 10:37:37;;;;;;;18.65;10.70;;;;;;;;;;5134102;28;20023;-72
2023/04/07 10:40:26;;;;;;;15.65;10.00;;;;;;;;;;5118722;28;20507;-71
2023/04/07 10:43:32;;;;;;;15.25;10.18;;;;;;;;;;5118745;28;20020;-70
2023/04/07 10:46:17;;;;;;;14.98;10.45;;;;;;;;;;5120170;28;20037;-69
2023/04/07 10:49:08;;;;;;;15.85;10.07;;;;;;;;;;5134649;28;20107;-71
2023/04/07 10:52:12;;;;;;;16.55;9.68;;;;;;;;;;5134774;28;20055;-72
2023/04/07 10:55:18;;;;;;;14.73;9.98;;;;;;;;;;5133511;28;20027;-70
2023/04/07 10:58:27;;;;;;;13.23;9.55;;;;;;;;;;5133530;27;20443;-72
2023/04/07 11:01:13;;;;;;;15.00;9.85;;;;;;;;;;5138347;27;20389;-70
2023/04/07 11:03:59;;;;;;;14.63;10.65;;;;;;;;;;5132382;27;20030;-71
2023/04/07 11:06:48;;;;;;;15.70;10.38;;;;;;;;;;5137478;27;20020;-69
2023/04/07 11:09:33;;;;;;;12.55;9.77;;;;;;;;;;5123096;27;20118;-70
2023/04/07 11:12:22;;;;;;;13.63;10.00;;;;;;;;;;5121417;27;20447;-70
2023/04/07 11:15:18;;;;;;;17.23;10.93;;;;;;;;;;5136367;27;20012;-72
2023/04/07 11:18:18;;;;;;;17.73;10.27;;;;;;;;;;5138807;27;20454;-70
2023/04/07 11:21:07;;;;;;;20.88;10.05;;;;;;;;;;5123288;27;20072;-69
2023/04/07 11:23:52;;;;;;;17.98;11.10;;;;;;;;;;5136822;27;20012;-70
2023/04/07 11:26:39;;;;;;;14.73;10.30;;;;;;;;;;5123484;27;20031;-70
2023/04/07 11:29:28;;;;;;;14.30;10.13;;;;;;;;;;5122484;27;20020;-71
2023/04/07 11:32:13;;;;;;;15.55;10.20;;;;;;;;;;5137264;27;20023;-70
2023/04/07 11:34:59;;;;;;;16.33;10.27;;;;;;;;;;5122294;27;20011;-70
2023/04/07 11:37:45;;;;;;;18.35;9.93;;;;;;;;;;5122174;27;20019;-71
2023/04/07 11:40:33;;;;;;;14.15;9.90;;;;;;;;;;5136943;27;20079;-71
2023/04/07 11:43:20;;;;;;;17.75;11.70;;;;;;;;;;5121566;27;20445;-71
2023/04/07 11:46:07;;;;;;;18.67;11.65;;;;;;;;;;5136917;27;20023;-70
2023/04/07 11:48:52;;;;;;;17.92;10.95;;;;;;;;;;5122485;27;20408;-70
2023/04/07 11:51:39;;;;;;;18.05;12.13;;;;;;;;;;5121803;27;20015;-71
2023/04/07 11:54:24;;;;;;;17.80;11.55;;;;;;;;;;5137079;27;20023;-71
2023/04/07 11:57:11;;;;;;;15.77;10.82;;;;;;;;;;5136888;27;20439;-69
2023/04/07 12:00:06;;;;;;;13.93;10.52;;;;;;;;;;5121172;27;20033;-70
2023/04/07 12:02:51;;;;;;;17.38;10.80;;;;;;;;;;5137040;27;20034;-71
2023/04/07 12:05:41;;;;;;;15.70;11.20;;;;;;;;;;5121914;27;20518;-70
2023/04/07 12:08:40;;;;;;;14.63;10.27;;;;;;;;;;5146560;27;20048;-72
2023/04/07 12:11:26;;;;;;;16.38;10.90;;;;;;;;;;5141096;27;20023;-69
2023/04/07 12:14:12;;;;;;;14.40;10.30;;;;;;;;;;5135901;27;20065;-71
2023/04/07 12:16:58;;;;;;;21.58;11.00;;;;;;;;;;5136601;27;20019;-69
2023/04/07 12:19:44;;;;;;;17.95;11.40;;;;;;;;;;5136491;27;20030;-69
2023/04/07 12:22:29;;;;;;;18.60;10.60;;;;;;;;;;5136688;27;20019;-70
2023/04/07 12:25:15;;;;;;;16.65;11.15;;;;;;;;;;5108704;27;20019;-69
2023/04/07 12:28:01;;;;;;;19.17;10.88;;;;;;;;;;5145836;27;20082;-70
2023/04/07 12:30:46;;;;;;;15.23;10.63;;;;;;;;;;5139762;27;20070;-70
2023/04/07 12:33:32;;;;;;;13.00;10.32;;;;;;;;;;5136006;27;20397;-70
2023/04/07 12:36:17;;;;;;;15.10;10.23;;;;;;;;;;5136942;27;20034;-70
2023/04/07 12:39:04;;;;;;;19.13;11.90;;;;;;;;;;5120634;27;20011;-70
2023/04/07 12:41:51;;;;;;;19.38;11.48;;;;;;;;;;5121333;27;20088;-70
2023/04/07 12:44:37;;;;;;;15.40;10.57;;;;;;;;;;5136307;27;20027;-70
2023/04/07 12:47:23;;;;;;;18.00;12.13;;;;;;;;;;5135237;27;20019;-69
2023/04/07 12:50:08;;;;;;;15.60;11.85;;;;;;;;;;5135284;27;20027;-70
2023/04/07 12:52:54;;;;;;;18.83;12.18;;;;;;;;;;5119931;27;20122;-70
2023/04/07 12:55:40;;;;;;;16.58;12.35;;;;;;;;;;5135733;27;20102;-70
2023/04/07 12:58:26;;;;;;;22.50;12.95;;;;;;;;;;5120870;27;20045;-70
2023/04/07 13:01:13;;;;;;;20.50;13.52;;;;;;;;;;5135625;27;20034;-69
2023/04/07 13:03:58;;;;;;;23.92;12.75;;;;;;;;;;5134278;27;20051;-69
2023/04/07 13:06:44;;;;;;;17.90;13.13;;;;;;;;;;5119238;27;20019;-70
2023/04/07 13:09:30;;;;;;;20.05;13.60;;;;;;;;;;5118630;27;20417;-71
2023/04/07 13:12:15;;;;;;;21.13;13.48;;;;;;;;;;5119742;27;20023;-72
2023/04/07 13:15:01;;;;;;;21.08;13.98;;;;;;;;;;5134200;27;20038;-71
2023/04/07 13:17:47;;;;;;;20.27;14.68;;;;;;;;;;5133969;27;20163;-71
2023/04/07 13:20:32;;;;;;;22.05;14.30;;;;;;;;;;5135430;27;20022;-69
2023/04/07 13:23:18;;;;;;;19.15;13.95;;;;;;;;;;5133983;27;20079;-72
2023/04/07 13:26:03;;;;;;;25.52;13.82;;;;;;;;;;5135629;27;20050;-71
2023/04/07 13:28:49;;;;;;;23.27;14.40;;;;;;;;;;5121001;27;20027;-71
2023/04/07 13:31:35;;;;;;;21.65;14.30;;;;;;;;;;5133793;27;20030;-69
2023/04/07 13:34:20;;;;;;;20.77;14.88;;;;;;;;;;5135424;27;20043;-70
2023/04/07 13:37:06;;;;;;;18.40;13.35;;;;;;;;;;5135072;27;20030;-72
2023/04/07 13:39:54;;;;;;;18.23;13.95;;;;;;;;;;5135068;27;20083;-70
2023/04/07 13:42:40;;;;;;;20.90;14.77;;;;;;;;;;5134901;27;20114;-72
2023/04/07 13:45:26;;;;;;;23.13;15.25;;;;;;;;;;5134889;27;20019;-71
2023/04/07 13:48:12;;;;;;;22.40;14.35;;;;;;;;;;5135207;27;20128;-71
2023/04/07 13:50:58;;;;;;;19.60;14.95;;;;;;;;;;5134612;28;20494;-71
2023/04/07 13:53:44;;;;;;;21.73;15.45;;;;;;;;;;5135141;28;20023;-71
2023/04/07 13:56:30;;;;;;;21.98;14.18;;;;;;;;;;5134626;28;20393;-72
2023/04/07 13:59:15;;;;;;;19.55;14.30;;;;;;;;;;5134948;28;20476;-71
2023/04/07 14:02:01;;;;;;;18.05;13.20;;;;;;;;;;5135519;28;20102;-71
2023/04/07 14:04:47;;;;;;;17.50;13.02;;;;;;;;;;5119620;28;20023;-71
2023/04/07 14:07:33;;;;;;;20.92;15.15;;;;;;;;;;5118885;28;20108;-71
2023/04/07 14:10:18;;;;;;;22.58;14.95;;;;;;;;;;5134133;28;20031;-70
2023/04/07 14:13:04;;;;;;;23.30;15.48;;;;;;;;;;5134737;28;20034;-70
2023/04/07 14:15:52;;;;;;;20.02;14.35;;;;;;;;;;5134643;28;20361;-71
2023/04/07 14:18:37;;;;;;;17.02;12.73;;;;;;;;;;5120150;28;20023;-70
2023/04/07 14:21:23;;;;;;;18.50;13.82;;;;;;;;;;5136580;28;20037;-70
2023/04/07 14:24:09;;;;;;;18.48;14.05;;;;;;;;;;5117680;28;20029;-71
2023/04/07 14:26:55;;;;;;;21.35;14.98;;;;;;;;;;5133234;28;20503;-70
2023/04/07 14:29:40;;;;;;;20.70;13.80;;;;;;;;;;5119020;28;20031;-70
2023/04/07 14:32:28;;;;;;;18.48;13.40;;;;;;;;;;5136677;27;20079;-70
2023/04/07 14:35:14;;;;;;;17.63;13.07;;;;;;;;;;5122610;27;20061;-71
2023/04/07 14:38:00;;;;;;;17.00;12.18;;;;;;;;;;5123250;27;20412;-71
2023/04/07 14:40:46;;;;;;;19.13;12.93;;;;;;;;;;5137906;27;20022;-71
2023/04/07 14:43:31;;;;;;;19.00;13.60;;;;;;;;;;5123937;27;20102;-70
2023/04/07 14:46:17;;;;;;;23.33;12.75;;;;;;;;;;5138357;27;20430;-71
2023/04/07 14:49:03;;;;;;;19.20;13.90;;;;;;;;;;5135560;27;20026;-69
2023/04/07 14:51:49;;;;;;;17.35;13.27;;;;;;;;;;5138026;27;20362;-71
2023/04/07 14:54:34;;;;;;;29.10;13.88;;;;;;;;;;5150824;27;20061;-70
2023/04/07 14:57:21;;;;;;;13.75;10.98;;;;;;;;;;5127413;27;20011;-69
2023/04/07 15:00:07;;;;;;;19.10;12.88;;;;;;;;;;5138696;27;20072;-70
2023/04/07 15:02:53;;;;;;;19.55;13.73;;;;;;;;;;5136806;27;20015;-70
2023/04/07 15:05:39;;;;;;;18.77;13.70;;;;;;;;;;5123428;27;20034;-69
2023/04/07 15:08:25;;;;;;;18.92;13.13;;;;;;;;;;5122000;27;20047;-72
2023/04/07 15:11:11;;;;;;;18.52;13.57;;;;;;;;;;5124735;27;20019;-69
2023/04/07 15:13:59;;;;;;;18.02;13.98;;;;;;;;;;5134503;27;20105;-68
2023/04/07 15:16:47;;;;;;;27.35;14.80;;;;;;;;;;5139985;27;20058;-69
2023/04/07 15:19:32;;;;;;;24.58;14.43;;;;;;;;;;5138359;27;20041;-68
2023/04/07 15:22:18;;;;;;;21.60;15.15;;;;;;;;;;5122845;27;20031;-71
2023/04/07 15:25:04;;;;;;;20.77;14.50;;;;;;;;;;5122501;27;20457;-71
2023/04/07 15:27:49;;;;;;;24.77;15.35;;;;;;;;;;5137579;27;20054;-71
2023/04/07 15:30:35;;;;;;;19.77;15.15;;;;;;;;;;5137232;27;20332;-71
2023/04/07 15:33:20;;;;;;;22.15;14.65;;;;;;;;;;5136319;27;20409;-70
2023/04/07 15:36:07;;;;;;;23.08;14.27;;;;;;;;;;5122415;27;20027;-70
2023/04/07 15:38:53;;;;;;;27.02;15.18;;;;;;;;;;5122608;27;20023;-69
2023/04/07 15:41:38;;;;;;;23.63;15.05;;;;;;;;;;5136380;27;20019;-70
2023/04/07 15:44:24;;;;;;;22.35;14.50;;;;;;;;;;5121274;27;20042;-71
2023/04/07 15:47:09;;;;;;;25.67;15.05;;;;;;;;;;5123308;27;20031;-71
2023/04/07 15:49:55;;;;;;;22.95;14.73;;;;;;;;;;5138884;27;20094;-71
2023/04/07 15:52:40;;;;;;;27.05;16.10;;;;;;;;;;5136301;27;20125;-70
2023/04/07 15:55:26;;;;;;;25.58;16.73;;;;;;;;;;5136582;27;20019;-71
2023/04/07 15:58:12;;;;;;;38.70;17.15;;;;;;;;;;5136334;27;20023;-70
2023/04/07 16:00:57;;;;;;;23.05;15.38;;;;;;;;;;5136296;27;20030;-71
2023/04/07 16:03:43;;;;;;;20.63;15.57;;;;;;;;;;5122756;27;20042;-70
2023/04/07 16:06:30;;;;;;;36.33;16.40;;;;;;;;;;5136060;27;20470;-71
2023/04/07 16:09:16;;;;;;;22.52;15.25;;;;;;;;;;5136476;27;20066;-71